createdAt,value
2023-03-02T00:01:34.204Z,5.45
2023-03-02T00:04:02.937Z,5.85
2023-03-02T00:06:31.047Z,5.72
2023-03-02T00:09:02.382Z,5.65
2023-03-02T00:11:30.407Z,5.70
2023-03-02T00:13:57.031Z,5.45
2023-03-02T00:16:23.592Z,5.65
2023-03-02T00:18:50.000Z,5.85
2023-03-02T00:21:16.693Z,5.60
2023-03-02T00:23:43.257Z,5.90
2023-03-02T00:26:09.637Z,5.32
2023-03-02T00:28:36.161Z,5.80
2023-03-02T00:31:06.660Z,5.65
2023-03-02T00:33:34.582Z,5.80
2023-03-02T00:36:02.177Z,5.63
2023-03-02T00:38:29.146Z,5.53
2023-03-02T00:40:56.241Z,5.18
2023-03-02T00:43:27.205Z,5.63
2023-03-02T00:45:56.674Z,5.45
2023-03-02T00:48:23.050Z,5.57
2023-03-02T00:50:49.768Z,6.25
2023-03-02T00:53:17.848Z,4.88
2023-03-02T00:55:54.236Z,6.00
2023-03-02T00:58:21.537Z,6.18
2023-03-02T01:00:48.184Z,5.53
2023-03-02T01:03:14.820Z,5.30
2023-03-02T01:05:42.323Z,5.65
2023-03-02T01:08:08.758Z,6.80
2023-03-02T01:10:35.129Z,6.28
2023-03-02T01:13:01.750Z,5.97
2023-03-02T01:15:28.129Z,5.82
2023-03-02T01:17:54.536Z,6.32
2023-03-02T01:20:21.040Z,6.80
2023-03-02T01:22:47.497Z,6.47
2023-03-02T01:25:13.998Z,6.63
2023-03-02T01:27:40.358Z,7.30
2023-03-02T01:30:07.455Z,5.80
2023-03-02T01:32:33.966Z,5.67
2023-03-02T01:35:00.381Z,6.25
2023-03-02T01:37:26.834Z,6.45
2023-03-02T01:39:53.231Z,6.47
2023-03-02T01:42:19.757Z,6.53
2023-03-02T01:44:51.286Z,6.40
2023-03-02T01:47:22.670Z,6.15
2023-03-02T01:50:24.641Z,6.50
2023-03-02T01:52:51.942Z,5.93
2023-03-02T01:55:25.059Z,5.78
2023-03-02T01:57:53.883Z,6.07
2023-03-02T02:00:32.589Z,6.72
2023-03-02T02:03:09.388Z,7.20
2023-03-02T02:05:39.701Z,6.03
2023-03-02T02:08:06.988Z,5.90
2023-03-02T02:10:34.289Z,5.93
2023-03-02T02:13:01.294Z,6.53
2023-03-02T02:15:27.703Z,5.68
2023-03-02T02:17:55.601Z,6.38
2023-03-02T02:20:52.072Z,6.05
2023-03-02T02:23:33.938Z,5.77
2023-03-02T02:26:04.023Z,6.47
2023-03-02T02:28:49.157Z,6.10
2023-03-02T02:31:22.396Z,6.10
2023-03-02T02:33:53.213Z,6.43
2023-03-02T02:36:23.332Z,6.40
2023-03-02T02:38:54.170Z,5.90
2023-03-02T02:41:28.626Z,6.43
2023-03-02T02:43:55.908Z,5.90
2023-03-02T02:46:23.680Z,6.20
2023-03-02T02:48:50.299Z,5.97
2023-03-02T02:51:23.590Z,5.97
2023-03-02T02:53:59.753Z,5.90
2023-03-02T02:56:32.744Z,5.68
2023-03-02T02:59:09.680Z,5.63
2023-03-02T03:01:36.212Z,5.53
2023-03-02T03:04:04.793Z,6.25
2023-03-02T03:06:42.410Z,5.38
2023-03-02T03:09:10.616Z,5.95
2023-03-02T03:11:41.612Z,5.97
2023-03-02T03:14:19.787Z,6.28
2023-03-02T03:16:47.988Z,6.13
2023-03-02T03:19:21.273Z,6.15
2023-03-02T03:21:50.952Z,6.07
2023-03-02T03:24:18.123Z,6.25
2023-03-02T03:26:45.138Z,5.85
2023-03-02T03:29:12.975Z,5.93
2023-03-02T03:31:39.891Z,5.55
2023-03-02T03:34:07.170Z,6.10
2023-03-02T03:36:34.423Z,5.30
2023-03-02T03:39:02.303Z,6.13
2023-03-02T03:41:28.698Z,5.82
2023-03-02T03:43:55.498Z,5.95
2023-03-02T03:46:21.977Z,5.75
2023-03-02T03:48:48.533Z,6.18
2023-03-02T03:51:14.983Z,6.28
2023-03-02T03:53:41.565Z,6.28
2023-03-02T03:56:07.940Z,6.10
2023-03-02T03:58:34.466Z,5.45
2023-03-02T04:01:00.879Z,5.82
2023-03-02T04:03:27.592Z,6.22
2023-03-02T04:05:53.965Z,5.72
2023-03-02T04:08:21.223Z,5.30
2023-03-02T04:10:47.625Z,5.70
2023-03-02T04:13:14.250Z,5.68
2023-03-02T04:15:41.770Z,5.90
2023-03-02T04:18:08.510Z,5.63
2023-03-02T04:20:35.408Z,5.35
2023-03-02T04:23:01.980Z,5.93
2023-03-02T04:25:29.772Z,5.70
2023-03-02T04:27:56.575Z,5.65
2023-03-02T04:30:25.962Z,5.45
2023-03-02T04:32:52.439Z,6.13
2023-03-02T04:35:19.509Z,5.32
2023-03-02T04:37:46.873Z,5.85
2023-03-02T04:40:14.650Z,5.20
2023-03-02T04:42:41.724Z,5.93
2023-03-02T04:45:08.543Z,5.63
2023-03-02T04:47:34.956Z,5.30
2023-03-02T04:50:01.318Z,5.82
2023-03-02T04:52:27.773Z,5.57
2023-03-02T04:54:54.141Z,5.53
2023-03-02T04:57:23.403Z,4.97
2023-03-02T04:59:49.730Z,5.70
2023-03-02T05:02:16.147Z,5.60
2023-03-02T05:04:42.650Z,5.25
2023-03-02T05:07:09.140Z,4.95
2023-03-02T05:09:35.826Z,5.95
2023-03-02T05:12:02.319Z,4.90
2023-03-02T05:14:29.709Z,5.22
2023-03-02T05:16:56.747Z,4.70
2023-03-02T05:19:23.224Z,4.80
2023-03-02T05:21:49.867Z,5.00
2023-03-02T05:24:16.628Z,4.80
2023-03-02T05:26:43.067Z,5.20
2023-03-02T05:29:09.603Z,5.50
2023-03-02T05:31:39.362Z,5.10
2023-03-02T05:34:09.091Z,5.35
2023-03-02T05:36:36.020Z,4.75
2023-03-02T05:39:03.740Z,4.60
2023-03-02T05:41:30.182Z,4.78
2023-03-02T05:43:56.665Z,4.97
2023-03-02T05:46:23.302Z,5.10
2023-03-02T05:48:49.720Z,4.43
2023-03-02T05:51:16.164Z,4.90
2023-03-02T05:53:42.580Z,5.50
2023-03-02T05:56:09.733Z,5.30
2023-03-02T05:58:36.214Z,5.30
2023-03-02T06:01:02.708Z,5.47
2023-03-02T06:03:29.210Z,5.25
2023-03-02T06:05:56.145Z,5.45
2023-03-02T06:08:22.578Z,5.32
2023-03-02T06:10:50.665Z,5.15
2023-03-02T06:13:17.068Z,5.60
2023-03-02T06:15:43.823Z,5.45
2023-03-02T06:18:12.465Z,5.45
2023-03-02T06:20:39.529Z,5.72
2023-03-02T06:23:06.089Z,5.60
2023-03-02T06:25:32.553Z,5.32
2023-03-02T06:27:58.940Z,5.75
2023-03-02T06:30:26.043Z,5.28
2023-03-02T06:32:52.581Z,5.40
2023-03-02T06:35:19.470Z,5.18
2023-03-02T06:37:45.918Z,5.40
2023-03-02T06:40:13.832Z,4.90
2023-03-02T06:42:42.110Z,5.15
2023-03-02T06:45:09.761Z,5.60
2023-03-02T06:47:36.395Z,4.97
2023-03-02T06:50:03.377Z,5.13
2023-03-02T06:52:29.755Z,5.95
2023-03-02T06:54:56.553Z,5.72
2023-03-02T06:57:23.271Z,5.28
2023-03-02T06:59:49.673Z,5.60
2023-03-02T07:02:16.047Z,5.25
2023-03-02T07:04:42.451Z,5.07
2023-03-02T07:07:08.833Z,5.45
2023-03-02T07:09:35.633Z,5.28
2023-03-02T07:12:02.245Z,5.18
2023-03-02T07:14:28.641Z,5.43
2023-03-02T07:16:57.406Z,5.97
2023-03-02T07:19:24.187Z,5.00
2023-03-02T07:21:50.579Z,5.13
2023-03-02T07:24:17.061Z,5.88
2023-03-02T07:26:43.442Z,5.28
2023-03-02T07:29:10.054Z,5.90
2023-03-02T07:31:36.488Z,4.97
2023-03-02T07:34:02.868Z,4.95
2023-03-02T07:36:29.289Z,5.47
2023-03-02T07:38:55.885Z,5.47
2023-03-02T07:41:22.803Z,5.47
2023-03-02T07:43:49.312Z,5.03
2023-03-02T07:46:16.057Z,5.53
2023-03-02T07:48:42.806Z,5.15
2023-03-02T07:51:09.214Z,5.38
2023-03-02T07:53:35.970Z,5.78
2023-03-02T07:56:09.792Z,4.90
2023-03-02T07:58:36.980Z,5.15
2023-03-02T08:01:03.982Z,5.50
2023-03-02T08:03:30.399Z,6.00
2023-03-02T08:05:56.788Z,5.53
2023-03-02T08:08:23.257Z,5.15
2023-03-02T08:10:49.652Z,4.95
2023-03-02T08:13:16.152Z,5.18
2023-03-02T08:15:42.548Z,5.25
2023-03-02T08:18:08.894Z,5.30
2023-03-02T08:20:35.296Z,4.95
2023-03-02T08:23:01.777Z,5.43
2023-03-02T08:25:28.158Z,6.07
2023-03-02T08:27:54.535Z,5.07
2023-03-02T08:30:20.935Z,5.32
2023-03-02T08:32:47.401Z,5.53
2023-03-02T08:35:13.881Z,5.35
2023-03-02T08:37:40.258Z,6.10
2023-03-02T08:40:07.393Z,5.30
2023-03-02T08:42:33.766Z,6.25
2023-03-02T08:45:00.146Z,5.82
2023-03-02T08:47:26.603Z,6.35
2023-03-02T08:49:53.068Z,5.20
2023-03-02T08:52:19.505Z,5.32
2023-03-02T08:54:45.869Z,5.72
2023-03-02T08:57:12.749Z,5.22
2023-03-02T08:59:39.140Z,5.75
2023-03-02T09:02:05.633Z,6.43
2023-03-02T09:04:32.292Z,6.72
2023-03-02T09:06:58.825Z,6.95
2023-03-02T09:09:25.184Z,6.75
2023-03-02T09:11:51.601Z,7.25
2023-03-02T09:14:17.957Z,6.35
2023-03-02T09:16:45.407Z,5.45
2023-03-02T09:19:13.145Z,5.68
2023-03-02T09:21:39.585Z,5.43
2023-03-02T09:24:06.172Z,5.80
2023-03-02T09:26:32.509Z,5.70
2023-03-02T09:28:58.968Z,5.95
2023-03-02T09:31:25.408Z,5.40
2023-03-02T09:33:51.875Z,5.78
2023-03-02T09:36:21.650Z,5.63
2023-03-02T09:38:48.418Z,5.40
2023-03-02T09:41:20.862Z,5.75
2023-03-02T09:44:00.205Z,5.63
2023-03-02T09:46:34.769Z,5.65
2023-03-02T09:49:32.757Z,5.55
2023-03-02T09:52:18.649Z,5.15
2023-03-02T09:54:45.245Z,5.70
2023-03-02T09:57:22.788Z,5.25
2023-03-02T10:00:01.629Z,5.10
2023-03-02T10:02:42.294Z,5.72
2023-03-02T10:05:20.425Z,6.18
2023-03-02T10:07:47.850Z,5.85
2023-03-02T10:10:40.348Z,5.55
2023-03-02T10:13:21.913Z,5.70
2023-03-02T10:16:16.044Z,6.03
2023-03-02T10:19:25.021Z,5.97
2023-03-02T10:22:09.920Z,6.10
2023-03-02T10:24:48.040Z,6.00
2023-03-02T10:27:26.080Z,5.50
2023-03-02T10:29:55.339Z,5.82
2023-03-02T10:32:22.983Z,5.70
2023-03-02T10:34:52.321Z,5.63
2023-03-02T10:37:25.392Z,5.63
2023-03-02T10:39:52.688Z,6.13
2023-03-02T10:42:36.807Z,5.97
2023-03-02T10:45:19.134Z,5.70
2023-03-02T10:47:45.561Z,5.13
2023-03-02T10:50:22.422Z,5.53
2023-03-02T10:52:59.501Z,5.32
2023-03-02T10:55:27.154Z,5.82
2023-03-02T10:58:20.067Z,6.03
2023-03-02T11:01:00.254Z,5.60
2023-03-02T11:03:27.648Z,6.07
2023-03-02T11:05:54.082Z,5.50
2023-03-02T11:08:22.275Z,5.65
2023-03-02T11:11:00.582Z,5.57
2023-03-02T11:13:33.969Z,5.90
2023-03-02T11:16:21.681Z,5.40
2023-03-02T11:18:57.258Z,6.00
2023-03-02T11:21:43.266Z,5.45
2023-03-02T11:24:18.254Z,5.20
2023-03-02T11:26:50.177Z,5.50
2023-03-02T11:29:40.647Z,5.57
2023-03-02T11:32:20.143Z,5.88
2023-03-02T11:34:57.485Z,5.75
2023-03-02T11:37:34.750Z,5.05
2023-03-02T11:40:22.982Z,5.22
2023-03-02T11:42:50.922Z,4.55
2023-03-02T11:45:24.060Z,5.40
2023-03-02T11:48:03.141Z,5.05
2023-03-02T11:50:34.298Z,5.05
2023-03-02T11:53:06.237Z,5.13
2023-03-02T11:55:40.420Z,5.72
2023-03-02T11:58:07.319Z,5.70
2023-03-02T12:00:40.613Z,7.97
2023-03-02T12:03:18.494Z,5.32
2023-03-02T12:06:25.097Z,5.72
2023-03-02T12:09:08.598Z,5.57
2023-03-02T12:11:40.788Z,5.72
2023-03-02T12:14:39.675Z,4.68
2023-03-02T12:17:19.511Z,4.57
2023-03-02T12:19:47.288Z,4.32
2023-03-02T12:22:25.269Z,4.43
2023-03-02T12:25:24.024Z,4.60
2023-03-02T12:27:53.386Z,4.40
2023-03-02T12:30:26.133Z,4.40
2023-03-02T12:33:21.848Z,4.30
2023-03-02T12:35:50.777Z,3.88
2023-03-02T12:38:36.776Z,4.60
2023-03-02T12:41:21.456Z,4.00
2023-03-02T12:44:09.593Z,4.10
2023-03-02T12:46:37.592Z,4.68
2023-03-02T12:49:13.535Z,4.90
2023-03-02T12:52:00.141Z,4.20
2023-03-02T12:54:29.359Z,4.65
2023-03-02T12:57:13.131Z,3.92
2023-03-02T12:59:39.978Z,4.50
2023-03-02T13:02:20.906Z,4.03
2023-03-02T13:05:03.961Z,4.25
2023-03-02T13:07:37.873Z,4.75
2023-03-02T13:10:36.063Z,4.30
2023-03-02T13:13:14.943Z,4.07
2023-03-02T13:15:56.110Z,3.90
2023-03-02T13:18:24.491Z,4.03
2023-03-02T13:20:52.070Z,4.38
2023-03-02T13:23:19.756Z,4.28
2023-03-02T13:25:52.412Z,4.28
2023-03-02T13:28:28.688Z,4.32
2023-03-02T13:31:02.524Z,4.50
2023-03-02T13:33:31.161Z,4.23
2023-03-02T13:35:58.028Z,3.75
2023-03-02T13:38:29.476Z,3.75
2023-03-02T13:40:56.534Z,3.90
2023-03-02T13:43:30.379Z,3.83
2023-03-02T13:46:03.439Z,3.60
2023-03-02T13:48:31.099Z,4.40
2023-03-02T13:51:02.272Z,3.80
2023-03-02T13:53:31.133Z,3.78
2023-03-02T13:56:00.261Z,4.03
2023-03-02T13:58:29.219Z,3.90
2023-03-02T14:00:55.973Z,3.95
2023-03-02T14:03:28.449Z,3.50
2023-03-02T14:05:57.784Z,3.92
2023-03-02T14:08:24.608Z,4.05
2023-03-02T14:10:53.795Z,3.60
2023-03-02T14:13:42.817Z,4.35
2023-03-02T14:16:14.052Z,4.03
2023-03-02T14:18:42.922Z,4.32
2023-03-02T14:21:19.921Z,5.25
2023-03-02T14:23:47.341Z,4.68
2023-03-02T14:26:36.972Z,4.22
2023-03-02T14:29:06.697Z,3.50
2023-03-02T14:31:34.444Z,3.67
2023-03-02T14:34:01.090Z,3.60
2023-03-02T14:36:29.844Z,3.80
2023-03-02T14:38:57.562Z,3.50
2023-03-02T14:41:24.825Z,3.38
2023-03-02T14:43:51.635Z,3.40
2023-03-02T14:46:18.125Z,3.78
2023-03-02T14:48:44.637Z,3.63
2023-03-02T14:51:23.252Z,3.47
2023-03-02T14:53:52.661Z,3.42
2023-03-02T14:56:22.658Z,3.75
2023-03-02T14:58:52.167Z,3.15
2023-03-02T15:01:20.258Z,3.15
2023-03-02T15:03:46.753Z,3.63
2023-03-02T15:06:26.732Z,3.45
2023-03-02T15:08:55.213Z,3.35
2023-03-02T15:11:21.768Z,2.97
2023-03-02T15:13:48.284Z,2.80
2023-03-02T15:16:15.478Z,3.03
2023-03-02T15:18:42.423Z,2.75
2023-03-02T15:21:15.512Z,2.80
2023-03-02T15:23:41.944Z,2.78
2023-03-02T15:26:10.279Z,3.30
2023-03-02T15:28:36.812Z,3.47
2023-03-02T15:31:07.922Z,3.20
2023-03-02T15:33:34.478Z,3.80
2023-03-02T15:36:00.891Z,3.65
2023-03-02T15:38:27.502Z,3.33
2023-03-02T15:40:53.871Z,3.42
2023-03-02T15:43:20.242Z,3.33
2023-03-02T15:45:46.793Z,3.25
2023-03-02T15:48:13.797Z,3.20
2023-03-02T15:50:40.486Z,3.45
2023-03-02T15:53:07.026Z,3.40
2023-03-02T15:55:33.451Z,3.78
2023-03-02T15:57:59.888Z,3.05
2023-03-02T16:00:26.565Z,3.30
2023-03-02T16:02:52.920Z,2.90
2023-03-02T16:05:19.415Z,3.22
2023-03-02T16:07:45.758Z,3.50
2023-03-02T16:10:15.375Z,3.47
2023-03-02T16:12:42.104Z,3.50
2023-03-02T16:15:08.921Z,3.92
2023-03-02T16:17:35.296Z,3.60
2023-03-02T16:20:01.689Z,3.38
2023-03-02T16:22:28.074Z,3.75
2023-03-02T16:24:54.442Z,3.72
2023-03-02T16:27:20.868Z,3.85
2023-03-02T16:29:47.258Z,3.42
2023-03-02T16:32:13.767Z,3.85
2023-03-02T16:34:40.328Z,3.45
2023-03-02T16:37:06.691Z,3.53
2023-03-02T16:39:33.140Z,3.90
2023-03-02T16:41:59.521Z,3.20
2023-03-02T16:44:26.368Z,3.45
2023-03-02T16:46:53.424Z,3.97
2023-03-02T16:49:20.247Z,4.40
2023-03-02T16:51:46.694Z,4.40
2023-03-02T16:54:16.492Z,5.35
2023-03-02T16:56:47.066Z,5.00
2023-03-02T16:59:13.605Z,4.57
2023-03-02T17:01:40.401Z,6.07
2023-03-02T17:04:06.950Z,6.72
2023-03-02T17:06:33.442Z,6.65
2023-03-02T17:09:00.129Z,6.75
2023-03-02T17:11:26.725Z,7.15
2023-03-02T17:13:53.123Z,7.70
2023-03-02T17:16:19.516Z,7.65
2023-03-02T17:18:46.995Z,7.60
2023-03-02T17:21:16.397Z,7.10
2023-03-02T17:23:42.954Z,7.90
2023-03-02T17:26:09.943Z,8.25
2023-03-02T17:28:36.335Z,8.15
2023-03-02T17:31:04.429Z,8.65
2023-03-02T17:33:32.066Z,8.38
2023-03-02T17:35:58.468Z,8.02
2023-03-02T17:38:24.843Z,8.68
2023-03-02T17:40:51.223Z,8.77
2023-03-02T17:43:17.685Z,9.23
2023-03-02T17:45:44.405Z,9.02
2023-03-02T17:48:10.953Z,7.72
2023-03-02T17:50:39.732Z,8.63
2023-03-02T17:53:06.093Z,8.93
2023-03-02T17:55:32.491Z,8.65
2023-03-02T17:57:59.057Z,8.80
2023-03-02T18:00:25.703Z,9.88
2023-03-02T18:02:52.599Z,9.05
2023-03-02T18:05:19.317Z,9.13
2023-03-02T18:07:45.845Z,9.48
2023-03-02T18:10:13.153Z,10.13
2023-03-02T18:12:39.963Z,9.60
2023-03-02T18:15:07.213Z,9.52
2023-03-02T18:17:33.771Z,8.70
2023-03-02T18:20:02.771Z,8.98
2023-03-02T18:22:29.428Z,9.63
2023-03-02T18:24:55.878Z,9.80
2023-03-02T18:27:24.106Z,10.07
2023-03-02T18:29:50.658Z,9.52
2023-03-02T18:32:17.312Z,10.00
2023-03-02T18:34:43.793Z,9.57
2023-03-02T18:37:10.178Z,9.52
2023-03-02T18:39:37.810Z,10.50
2023-03-02T18:42:05.018Z,9.65
2023-03-02T18:44:31.420Z,9.77
2023-03-02T18:46:58.591Z,10.25
2023-03-02T18:49:25.176Z,10.38
2023-03-02T18:51:52.846Z,12.23
2023-03-02T18:54:19.234Z,11.23
2023-03-02T18:56:45.585Z,10.75
2023-03-02T18:59:13.202Z,11.52
2023-03-02T19:01:39.629Z,11.98
2023-03-02T19:04:06.453Z,11.70
2023-03-02T19:06:33.564Z,13.10
2023-03-02T19:09:00.420Z,12.25
2023-03-02T19:11:26.922Z,12.27
2023-03-02T19:13:53.402Z,12.80
2023-03-02T19:16:19.972Z,12.40
2023-03-02T19:18:46.375Z,13.20
2023-03-02T19:21:12.872Z,13.40
2023-03-02T19:23:39.358Z,12.55
2023-03-02T19:26:05.702Z,12.90
2023-03-02T19:28:34.007Z,13.60
2023-03-02T19:31:06.464Z,13.70
2023-03-02T19:33:33.239Z,14.30
2023-03-02T19:35:59.787Z,13.48
2023-03-02T19:38:29.048Z,13.02
2023-03-02T19:40:57.839Z,13.80
2023-03-02T19:43:24.914Z,14.00
2023-03-02T19:45:51.516Z,13.70
2023-03-02T19:48:18.904Z,14.43
2023-03-02T19:50:45.565Z,13.55
2023-03-02T19:53:12.607Z,14.55
2023-03-02T19:55:39.577Z,14.73
2023-03-02T19:58:07.819Z,15.00
2023-03-02T20:00:35.303Z,14.88
2023-03-02T20:03:01.837Z,14.57
2023-03-02T20:05:28.249Z,14.60
2023-03-02T20:07:54.763Z,14.23
2023-03-02T20:10:28.410Z,14.93
2023-03-02T20:12:54.829Z,14.90
2023-03-02T20:15:21.253Z,15.27
2023-03-02T20:17:47.754Z,14.32
2023-03-02T20:20:17.315Z,15.80
2023-03-02T20:22:45.396Z,15.55
2023-03-02T20:25:14.402Z,15.32
2023-03-02T20:27:40.860Z,14.93
2023-03-02T20:30:10.879Z,14.90
2023-03-02T20:32:37.376Z,14.73
2023-03-02T20:35:04.239Z,15.60
2023-03-02T20:37:30.628Z,14.27
2023-03-02T20:39:57.505Z,14.90
2023-03-02T20:42:23.969Z,15.60
2023-03-02T20:44:51.754Z,16.35
2023-03-02T20:47:18.276Z,15.40
2023-03-02T20:49:44.726Z,16.48
2023-03-02T20:52:11.481Z,16.17
2023-03-02T20:54:41.526Z,16.90
2023-03-02T20:57:08.946Z,15.27
2023-03-02T20:59:38.402Z,15.98
2023-03-02T21:02:07.883Z,16.27
2023-03-02T21:04:35.994Z,17.13
2023-03-02T21:07:03.034Z,17.27
2023-03-02T21:09:32.824Z,17.30
2023-03-02T21:11:59.270Z,18.45
2023-03-02T21:14:30.638Z,18.40
2023-03-02T21:16:59.659Z,17.85
2023-03-02T21:19:37.419Z,18.60
2023-03-02T21:22:07.019Z,19.00
2023-03-02T21:24:33.404Z,18.00
2023-03-02T21:27:01.319Z,19.23
2023-03-02T21:29:28.059Z,18.42
2023-03-02T21:31:54.912Z,19.40
2023-03-02T21:34:24.641Z,18.58
2023-03-02T21:36:53.639Z,18.58
2023-03-02T21:39:23.593Z,19.65
2023-03-02T21:41:50.783Z,19.35
2023-03-02T21:44:20.486Z,21.70
2023-03-02T21:46:47.406Z,20.20
2023-03-02T21:49:19.465Z,20.02
2023-03-02T21:51:48.068Z,20.55
2023-03-02T21:54:15.447Z,20.00
2023-03-02T21:56:43.229Z,21.05
2023-03-02T21:59:10.557Z,19.50
2023-03-02T22:01:36.917Z,19.85
2023-03-02T22:04:03.506Z,20.60
2023-03-02T22:06:32.600Z,20.42
2023-03-02T22:08:59.601Z,20.20
2023-03-02T22:11:28.875Z,20.63
2023-03-02T22:14:00.779Z,22.60
2023-03-02T22:16:35.675Z,22.58
2023-03-02T22:19:07.724Z,21.95
2023-03-02T22:21:38.046Z,20.70
2023-03-02T22:24:10.987Z,19.83
2023-03-02T22:26:41.971Z,20.05
2023-03-02T22:29:23.509Z,21.77
2023-03-02T22:31:52.904Z,20.80
2023-03-02T22:34:24.709Z,21.55
2023-03-02T22:36:51.638Z,21.33
2023-03-02T22:39:27.615Z,21.42
2023-03-02T22:42:18.179Z,20.83
2023-03-02T22:44:51.690Z,23.70
2023-03-02T22:47:21.841Z,23.70
2023-03-02T22:49:57.947Z,23.15
2023-03-02T22:52:27.882Z,23.55
2023-03-02T22:54:55.095Z,24.17
2023-03-02T22:57:35.268Z,25.10
2023-03-02T23:00:33.738Z,25.10
2023-03-02T23:03:00.168Z,25.90
2023-03-02T23:05:34.615Z,25.73
2023-03-02T23:08:22.980Z,26.05
2023-03-02T23:10:51.424Z,24.30
2023-03-02T23:13:21.556Z,25.42
2023-03-02T23:15:49.914Z,25.80
2023-03-02T23:18:24.547Z,25.02
2023-03-02T23:20:52.290Z,24.88
2023-03-02T23:23:19.776Z,26.15
2023-03-02T23:25:47.931Z,26.38
2023-03-02T23:28:14.643Z,27.58
2023-03-02T23:30:41.041Z,26.20
2023-03-02T23:33:07.647Z,27.10
2023-03-02T23:35:34.216Z,28.85
2023-03-02T23:38:01.442Z,26.48
2023-03-02T23:40:28.790Z,28.05
2023-03-02T23:42:55.704Z,27.80
2023-03-02T23:45:22.113Z,27.60
2023-03-02T23:47:48.721Z,26.83
2023-03-02T23:50:15.123Z,27.95
2023-03-02T23:52:41.514Z,26.02
2023-03-02T23:55:09.086Z,27.23
2023-03-02T23:57:35.477Z,27.67
